Terminal Aerodrome Forecast
Issued by NWS

Home | Current Version | Previous Version | Text Only | Print | Product List | Glossary On
Versions: 1 2 3 4 5 6 7 8 9 10 11 12 13 14 15 16 17
000
FTUS44 KLIX 030500
TAFMCB
TAF
KMCB 030528Z 0306/0406 16003KT P6SM FEW120
     FM031500 34003KT P6SM SCT040 BKN100
      TEMPO 0319/0323 VRB24G35KT 1SM +TSRA BKN035CB
     FM040000 00000KT P6SM SCT150=

USA.gov is the U.S. government's official web portal to all federal, state and local government web resources and services.